Time;durP1;ratioP1;P1;durP2;ratioP2;P2;SDS_P1;SDS_P2;PMS_P1;PMS_P2;Temp;Humidity;BMP_temperature;BMP_pressure;BME280_temperature;BME280_humidity;BME280_pressure;Samples;Min_cycle;Max_cycle;Signal;HPM_P1;HPM_P2
2023/10/04 00:00:19;;;;;;;8.82;2.00;;;16.50;59.50;;;;;;5045568;28;20255;-30
2023/10/04 00:02:53;;;;;;;7.43;2.10;;;16.50;59.50;;;;;;5045580;28;20749;-30
2023/10/04 00:05:26;;;;;;;7.65;2.22;;;16.50;59.50;;;;;;5044257;28;20200;-30
2023/10/04 00:07:56;;;;;;;10.00;2.67;;;16.40;59.50;;;;;;5044125;28;20269;-30
2023/10/04 00:10:24;;;;;;;8.43;2.25;;;16.40;59.50;;;;;;5044239;28;20698;-30
2023/10/04 00:12:52;;;;;;;6.53;1.50;;;16.40;59.60;;;;;;5044235;28;20204;-30
2023/10/04 00:15:22;;;;;;;7.97;1.80;;;16.40;59.60;;;;;;5045151;28;20239;-30
2023/10/04 00:17:52;;;;;;;8.68;2.00;;;16.40;59.60;;;;;;5045477;28;20211;-30
2023/10/04 00:20:31;;;;;;;13.00;2.58;;;16.40;59.60;;;;;;5046042;28;20196;-30
2023/10/04 00:23:05;;;;;;;8.73;2.65;;;16.30;59.60;;;;;;5045780;28;20684;-30
2023/10/04 00:25:34;;;;;;;9.47;2.20;;;16.30;59.60;;;;;;5043526;28;20231;-31
2023/10/04 00:28:03;;;;;;;8.13;1.88;;;16.30;59.60;;;;;;5043685;28;20200;-30
2023/10/04 00:30:31;;;;;;;7.25;1.92;;;16.40;59.70;;;;;;5027374;28;20745;-30
2023/10/04 00:33:04;;;;;;;14.45;2.35;;;16.30;59.60;;;;;;5045453;28;20596;-30
2023/10/04 00:35:32;;;;;;;8.87;2.03;;;16.30;59.70;;;;;;5045156;28;20790;-30
2023/10/04 00:38:00;;;;;;;12.15;2.17;;;16.30;59.80;;;;;;5027282;28;20254;-30
2023/10/04 00:40:32;;;;;;;13.32;2.17;;;16.30;59.80;;;;;;5043670;28;20312;-30
2023/10/04 00:43:13;;;;;;;9.95;2.08;;;16.30;59.80;;;;;;5043476;28;20228;-30
2023/10/04 00:45:47;;;;;;;12.02;2.40;;;16.20;59.80;;;;;;5027596;28;20206;-30
2023/10/04 00:48:29;;;;;;;7.23;2.10;;;16.20;59.80;;;;;;5043667;28;20192;-30
2023/10/04 00:50:59;;;;;;;5.70;1.90;;;16.20;59.80;;;;;;5045058;28;20211;-30
2023/10/04 00:53:29;;;;;;;11.80;2.17;;;16.20;59.80;;;;;;5043707;28;20212;-30
2023/10/04 00:55:58;;;;;;;9.03;1.90;;;16.20;59.80;;;;;;5045588;28;20678;-30
2023/10/04 00:58:28;;;;;;;6.35;1.98;;;16.10;59.80;;;;;;5035733;28;20225;-29
2023/10/04 01:00:57;;;;;;;9.83;2.27;;;16.20;60.00;;;;;;5024683;28;20336;-30
2023/10/04 01:03:30;;;;;;;9.00;2.22;;;16.10;59.90;;;;;;5027529;28;20225;-30
2023/10/04 01:06:05;;;;;;;8.30;1.95;;;16.10;60.00;;;;;;5043871;28;20211;-30
2023/10/04 01:08:39;;;;;;;10.45;2.05;;;16.10;60.00;;;;;;5032600;28;20196;-30
2023/10/04 01:11:07;;;;;;;10.90;2.00;;;16.10;60.10;;;;;;5044607;28;20307;-30
2023/10/04 01:13:34;;;;;;;9.77;2.33;;;16.00;60.00;;;;;;5044530;28;20196;-30
2023/10/04 01:16:02;;;;;;;12.93;2.17;;;16.10;60.10;;;;;;5031280;28;20236;-30
2023/10/04 01:18:30;;;;;;;8.63;2.38;;;16.00;60.10;;;;;;5026575;28;20279;-30
2023/10/04 01:20:57;;;;;;;8.55;2.20;;;16.00;60.10;;;;;;5042964;28;20224;-30
2023/10/04 01:23:25;;;;;;;8.47;1.87;;;16.00;60.20;;;;;;5042892;28;20193;-30
2023/10/04 01:25:55;;;;;;;11.05;2.40;;;16.00;60.20;;;;;;5044417;28;20228;-30
2023/10/04 01:28:30;;;;;;;10.27;2.53;;;16.00;60.20;;;;;;5044687;28;20557;-30
2023/10/04 01:31:00;;;;;;;12.18;2.50;;;16.00;60.20;;;;;;5043588;28;20623;-28
2023/10/04 01:33:28;;;;;;;8.70;1.95;;;16.00;60.30;;;;;;5045131;28;20208;-28
2023/10/04 01:35:59;;;;;;;8.90;1.97;;;16.00;60.30;;;;;;5044613;28;20702;-28
2023/10/04 01:38:32;;;;;;;7.47;2.00;;;16.00;60.40;;;;;;5045858;28;20302;-28
2023/10/04 01:41:04;;;;;;;8.47;2.27;;;15.90;60.30;;;;;;5046807;28;20718;-28
2023/10/04 01:43:33;;;;;;;11.17;2.33;;;16.00;60.40;;;;;;5048301;28;20192;-28
2023/10/04 01:46:01;;;;;;;8.47;2.20;;;15.90;60.30;;;;;;5046854;28;20303;-30
2023/10/04 01:48:30;;;;;;;8.43;2.10;;;15.90;60.30;;;;;;5046928;28;20195;-30
2023/10/04 01:51:02;;;;;;;9.23;1.90;;;15.90;60.30;;;;;;5046632;28;20576;-30
2023/10/04 01:53:34;;;;;;;11.93;2.43;;;15.90;60.40;;;;;;5048100;28;20206;-31
2023/10/04 01:56:03;;;;;;;7.77;1.93;;;15.90;60.40;;;;;;5046716;28;20231;-30
2023/10/04 01:58:31;;;;;;;11.13;2.10;;;15.90;60.50;;;;;;5046429;28;20624;-30
2023/10/04 02:01:00;;;;;;;11.17;2.50;;;15.90;60.50;;;;;;5046305;28;20240;-30
2023/10/04 02:03:29;;;;;;;12.70;2.40;;;15.90;60.50;;;;;;5030349;28;20208;-30
2023/10/04 02:05:56;;;;;;;12.07;2.40;;;15.90;60.60;;;;;;5030348;28;20657;-30
2023/10/04 02:08:24;;;;;;;8.30;1.87;;;15.90;60.70;;;;;;5046592;28;20550;-30
2023/10/04 02:10:55;;;;;;;10.37;2.40;;;15.90;60.60;;;;;;5046880;28;20222;-30
2023/10/04 02:13:25;;;;;;;7.30;2.40;;;15.80;60.60;;;;;;5046596;28;20316;-30
2023/10/04 02:15:53;;;;;;;10.83;2.73;;;15.90;60.60;;;;;;5047581;28;20239;-30
2023/10/04 02:18:21;;;;;;;12.80;2.27;;;15.80;60.70;;;;;;5047837;28;20203;-30
2023/10/04 02:20:53;;;;;;;13.03;2.03;;;15.80;60.60;;;;;;5047715;28;20228;-30
2023/10/04 02:23:23;;;;;;;8.47;2.50;;;15.80;60.80;;;;;;5047681;28;20208;-30
2023/10/04 02:25:51;;;;;;;8.67;2.40;;;15.80;60.70;;;;;;5046304;28;20254;-30
2023/10/04 02:28:22;;;;;;;9.30;2.27;;;15.80;60.70;;;;;;5045935;28;20227;-29
2023/10/04 02:30:54;;;;;;;10.03;2.30;;;15.80;61.30;;;;;;5047420;28;20200;-30
2023/10/04 02:33:34;;;;;;;9.53;2.47;;;15.80;60.80;;;;;;5047499;28;20586;-30
2023/10/04 02:36:01;;;;;;;9.57;2.30;;;15.80;60.90;;;;;;5047672;28;20224;-30
2023/10/04 02:38:33;;;;;;;10.53;2.20;;;15.70;60.80;;;;;;5047592;28;20232;-30
2023/10/04 02:41:01;;;;;;;10.40;2.57;;;15.70;60.80;;;;;;5045796;28;20246;-30
2023/10/04 02:43:30;;;;;;;7.73;2.30;;;15.70;60.90;;;;;;5045998;28;20196;-30
2023/10/04 02:45:57;;;;;;;11.97;2.63;;;15.70;60.90;;;;;;5046150;28;20720;-30
2023/10/04 02:48:24;;;;;;;11.30;2.33;;;15.70;61.00;;;;;;5046436;28;20202;-30
2023/10/04 02:50:52;;;;;;;10.73;2.73;;;15.70;60.90;;;;;;5045683;28;20691;-30
2023/10/04 02:53:25;;;;;;;7.53;2.37;;;15.70;61.20;;;;;;5047034;28;20200;-30
2023/10/04 02:55:54;;;;;;;10.40;2.60;;;15.70;61.00;;;;;;5046919;28;20227;-30
2023/10/04 02:58:21;;;;;;;9.33;2.60;;;15.70;61.00;;;;;;5047109;28;20223;-30
2023/10/04 03:00:53;;;;;;;10.03;2.50;;;15.70;61.20;;;;;;5046862;28;20258;-30
2023/10/04 03:03:24;;;;;;;12.17;2.53;;;15.60;61.00;;;;;;5046923;28;20220;-30
2023/10/04 03:05:54;;;;;;;10.17;2.47;;;15.70;61.10;;;;;;5030110;28;20295;-30
2023/10/04 03:08:24;;;;;;;9.17;2.70;;;15.70;61.10;;;;;;5045339;28;20690;-30
2023/10/04 03:10:55;;;;;;;14.07;2.67;;;15.60;61.10;;;;;;5045186;28;20196;-30
2023/10/04 03:13:23;;;;;;;12.63;2.53;;;15.60;61.10;;;;;;5046648;28;20212;-30
2023/10/04 03:15:53;;;;;;;10.53;2.37;;;15.60;61.20;;;;;;5046596;28;20228;-29
2023/10/04 03:18:25;;;;;;;11.27;3.07;;;15.60;61.10;;;;;;5045377;28;20202;-29
2023/10/04 03:23:35;;;;;;;9.93;2.57;;;15.60;61.20;;;;;;5047145;28;20287;-29
2023/10/04 03:26:03;;;;;;;8.85;2.38;;;15.50;61.10;;;;;;5044950;28;20224;-29
2023/10/04 03:28:37;;;;;;;7.83;2.40;;;15.50;61.20;;;;;;5044704;28;20238;-29
2023/10/04 03:31:14;;;;;;;8.97;2.70;;;15.50;61.10;;;;;;5046655;28;20208;-29
2023/10/04 03:33:45;;;;;;;11.23;2.40;;;15.50;61.20;;;;;;5044964;28;20203;-29
2023/10/04 03:36:18;;;;;;;14.13;2.40;;;15.50;61.30;;;;;;5046227;28;20220;-29
2023/10/04 03:38:45;;;;;;;8.67;2.53;;;15.40;61.20;;;;;;5046630;28;20210;-29
2023/10/04 03:41:19;;;;;;;12.70;2.60;;;15.40;61.20;;;;;;5047035;28;20598;-29
2023/10/04 03:43:47;;;;;;;8.00;2.37;;;15.30;61.10;;;;;;5046220;28;20207;-30
2023/10/04 03:46:21;;;;;;;10.63;2.33;;;15.40;61.40;;;;;;5028230;28;20619;-29
2023/10/04 03:48:49;;;;;;;9.43;2.73;;;15.30;61.30;;;;;;5028604;28;20212;-29
2023/10/04 03:51:21;;;;;;;9.03;2.63;;;15.30;61.40;;;;;;5028121;28;20295;-29
2023/10/04 03:53:50;;;;;;;10.37;2.40;;;15.20;61.30;;;;;;5044548;28;20689;-29
2023/10/04 03:56:18;;;;;;;10.33;2.77;;;15.20;61.30;;;;;;5044588;28;20224;-29
2023/10/04 03:58:45;;;;;;;12.93;2.90;;;15.20;61.40;;;;;;5044818;28;20216;-29
2023/10/04 04:01:14;;;;;;;14.70;2.67;;;15.20;61.50;;;;;;5045861;28;20270;-30
2023/10/04 04:03:44;;;;;;;11.30;2.20;;;15.20;61.50;;;;;;5044547;28;20208;-29
2023/10/04 04:06:12;;;;;;;9.87;2.43;;;15.10;61.50;;;;;;5011811;28;20970;-29
2023/10/04 04:08:39;;;;;;;6.97;1.90;;;15.10;61.50;;;;;;5045535;28;20688;-29
2023/10/04 04:11:06;;;;;;;15.97;2.67;;;15.10;61.50;;;;;;5045627;28;20283;-29
2023/10/04 04:13:36;;;;;;;9.23;2.23;;;15.10;61.50;;;;;;5028440;28;20307;-29
2023/10/04 04:16:10;;;;;;;13.40;2.57;;;15.10;61.60;;;;;;5045673;28;20223;-29
2023/10/04 04:18:40;;;;;;;7.23;1.97;;;15.00;61.60;;;;;;5045469;28;20204;-29
2023/10/04 04:21:09;;;;;;;10.97;2.80;;;15.00;61.60;;;;;;5043989;28;20211;-29
2023/10/04 04:23:37;;;;;;;9.27;2.33;;;15.00;61.60;;;;;;5045413;28;20262;-29
2023/10/04 04:26:10;;;;;;;11.50;2.50;;;15.00;61.70;;;;;;5045486;28;20262;-29
2023/10/04 04:28:41;;;;;;;9.47;2.17;;;15.00;61.70;;;;;;5043896;28;20208;-29
2023/10/04 04:31:20;;;;;;;9.70;2.73;;;15.00;62.50;;;;;;5027947;28;20247;-28
2023/10/04 04:33:47;;;;;;;10.27;1.87;;;14.90;61.70;;;;;;5045568;28;20280;-28
2023/10/04 04:36:26;;;;;;;8.80;2.40;;;14.90;61.70;;;;;;5044521;28;20602;-28
2023/10/04 04:38:56;;;;;;;11.40;2.30;;;14.90;61.70;;;;;;5045496;28;20200;-28
2023/10/04 04:41:26;;;;;;;12.00;2.60;;;14.90;61.80;;;;;;5045051;28;20214;-28
2023/10/04 04:43:55;;;;;;;8.50;2.53;;;14.80;61.80;;;;;;5027298;28;20285;-28
2023/10/04 04:46:23;;;;;;;10.53;2.60;;;14.80;61.90;;;;;;5045001;28;20845;-28
2023/10/04 04:48:54;;;;;;;6.70;2.70;;;14.80;61.90;;;;;;5043535;28;20227;-28
2023/10/04 04:51:22;;;;;;;10.27;2.80;;;14.80;61.90;;;;;;5045231;28;20542;-28
2023/10/04 04:53:50;;;;;;;11.73;2.43;;;14.80;61.90;;;;;;5043707;28;20670;-28
2023/10/04 04:56:18;;;;;;;13.87;2.97;;;14.80;61.90;;;;;;5043483;28;20586;-28
2023/10/04 04:58:52;;;;;;;13.97;3.00;;;14.80;62.10;;;;;;5044762;28;20243;-29
2023/10/04 05:01:21;;;;;;;12.10;2.70;;;14.70;61.90;;;;;;5043109;28;20473;-28
2023/10/04 05:03:51;;;;;;;9.67;2.50;;;14.70;62.10;;;;;;5044628;28;20215;-28
2023/10/04 05:06:25;;;;;;;10.43;2.77;;;14.70;62.10;;;;;;5044999;28;20678;-28
2023/10/04 05:08:57;;;;;;;10.80;2.27;;;14.70;62.00;;;;;;5044716;28;20310;-28
2023/10/04 05:11:24;;;;;;;12.93;2.20;;;14.70;62.10;;;;;;5043334;28;20227;-28
2023/10/04 05:13:56;;;;;;;10.23;2.40;;;14.70;62.10;;;;;;5047196;28;20195;-28
2023/10/04 05:16:25;;;;;;;11.13;2.77;;;14.60;62.00;;;;;;5048722;28;20227;-28
2023/10/04 05:18:53;;;;;;;9.07;2.50;;;14.60;62.10;;;;;;5048910;28;20726;-28
2023/10/04 05:21:23;;;;;;;9.17;2.50;;;14.60;62.10;;;;;;5047272;28;20341;-28
2023/10/04 05:23:55;;;;;;;11.63;2.67;;;14.60;62.10;;;;;;5046950;28;20192;-28
2023/10/04 05:26:25;;;;;;;11.90;2.80;;;14.50;62.20;;;;;;5048966;28;20627;-29
2023/10/04 05:28:52;;;;;;;9.77;2.70;;;14.50;62.10;;;;;;5048490;28;20303;-28
2023/10/04 05:31:20;;;;;;;11.83;2.43;;;14.50;62.20;;;;;;5048703;28;20206;-28
2023/10/04 05:33:47;;;;;;;8.00;2.47;;;14.50;62.20;;;;;;5048513;28;20204;-28
2023/10/04 05:36:14;;;;;;;9.10;2.27;;;14.50;62.30;;;;;;5046925;28;20219;-28
2023/10/04 05:38:42;;;;;;;12.67;2.63;;;14.50;62.20;;;;;;5048584;28;20600;-28
2023/10/04 05:41:09;;;;;;;11.77;2.90;;;14.40;62.30;;;;;;5047064;28;20701;-28
2023/10/04 05:43:39;;;;;;;15.90;3.47;;;14.40;62.40;;;;;;5047004;28;20299;-28
2023/10/04 05:46:10;;;;;;;16.53;2.93;;;14.40;62.40;;;;;;5048347;28;20283;-28
2023/10/04 05:48:39;;;;;;;13.70;3.43;;;14.40;62.40;;;;;;5048224;28;20204;-28
2023/10/04 05:51:09;;;;;;;14.70;3.17;;;14.40;62.40;;;;;;5047302;28;20204;-27
2023/10/04 05:53:37;;;;;;;10.53;3.00;;;14.40;62.40;;;;;;5048452;28;20228;-28
2023/10/04 05:56:05;;;;;;;21.20;4.07;;;14.30;62.50;;;;;;5046536;28;20200;-28
2023/10/04 05:58:34;;;;;;;14.70;3.13;;;14.40;62.50;;;;;;5029942;28;20306;-28
2023/10/04 06:01:06;;;;;;;12.50;3.20;;;14.30;62.60;;;;;;5046099;28;20297;-30
2023/10/04 06:03:38;;;;;;;11.90;2.70;;;14.30;62.80;;;;;;5047836;28;20216;-31
2023/10/04 06:06:06;;;;;;;15.03;3.30;;;14.30;62.60;;;;;;5048083;28;20221;-31
2023/10/04 06:08:33;;;;;;;11.37;3.07;;;14.30;62.50;;;;;;5047711;28;20215;-30
2023/10/04 06:11:02;;;;;;;10.77;2.40;;;14.30;62.50;;;;;;5047749;28;20216;-30
2023/10/04 06:13:29;;;;;;;18.58;3.92;;;14.30;62.60;;;;;;5045906;28;20643;-31
2023/10/04 06:15:56;;;;;;;16.17;3.17;;;14.20;62.60;;;;;;5046155;28;20307;-30
2023/10/04 06:18:28;;;;;;;12.27;3.33;;;14.20;62.70;;;;;;5047656;28;20315;-30
2023/10/04 06:20:59;;;;;;;13.60;2.73;;;14.20;62.70;;;;;;5047431;28;20233;-30
2023/10/04 06:23:31;;;;;;;14.60;2.60;;;14.20;62.80;;;;;;5047293;28;20208;-30
2023/10/04 06:25:59;;;;;;;17.83;3.77;;;14.20;62.70;;;;;;5047367;28;20573;-29
2023/10/04 06:28:29;;;;;;;13.07;3.10;;;14.20;62.80;;;;;;5046434;28;20207;-29
2023/10/04 06:30:56;;;;;;;9.97;2.80;;;14.20;62.80;;;;;;5047399;28;20435;-30
2023/10/04 06:33:24;;;;;;;13.83;3.40;;;14.20;62.80;;;;;;5047293;28;20208;-29
2023/10/04 06:35:52;;;;;;;11.80;2.57;;;14.20;62.90;;;;;;5047942;28;20548;-30
2023/10/04 06:38:21;;;;;;;15.43;3.23;;;14.20;63.00;;;;;;5045672;28;20603;-29
2023/10/04 06:40:52;;;;;;;13.83;3.10;;;14.20;63.00;;;;;;5045550;28;20262;-29
2023/10/04 06:43:21;;;;;;;14.97;3.27;;;14.20;63.10;;;;;;5045455;28;20302;-30
2023/10/04 06:45:51;;;;;;;13.37;2.90;;;14.20;63.00;;;;;;5045584;28;20203;-29
2023/10/04 06:48:18;;;;;;;13.30;3.23;;;14.20;63.10;;;;;;5045630;28;20679;-29
2023/10/04 06:50:49;;;;;;;11.20;3.03;;;14.20;63.00;;;;;;5045121;28;20299;-29
2023/10/04 06:53:17;;;;;;;11.43;2.90;;;14.20;63.10;;;;;;5046549;28;20257;-29
2023/10/04 06:55:46;;;;;;;11.80;3.10;;;14.20;63.20;;;;;;5045014;28;20708;-29
2023/10/04 06:58:15;;;;;;;13.27;3.50;;;14.20;63.20;;;;;;5046687;28;20329;-29
2023/10/04 07:00:42;;;;;;;13.18;2.53;;;14.20;63.20;;;;;;5046424;28;20239;-29
2023/10/04 07:03:10;;;;;;;15.23;3.40;;;14.30;63.40;;;;;;5046795;28;20207;-29
2023/10/04 07:05:40;;;;;;;12.67;3.27;;;14.30;63.30;;;;;;5046688;28;20214;-29
2023/10/04 07:08:12;;;;;;;17.33;3.27;;;14.30;63.30;;;;;;5045186;28;20677;-30
2023/10/04 07:10:41;;;;;;;18.43;3.73;;;14.30;63.40;;;;;;5046910;28;20204;-30
2023/10/04 07:13:16;;;;;;;20.93;3.17;;;14.30;63.40;;;;;;5028539;28;20709;-30
2023/10/04 07:15:44;;;;;;;14.67;3.53;;;14.40;63.50;;;;;;5046500;28;20273;-30
2023/10/04 07:18:14;;;;;;;15.32;3.20;;;14.40;64.30;;;;;;5012430;28;20234;-30
2023/10/04 07:20:44;;;;;;;13.33;2.70;;;14.40;63.60;;;;;;5046366;28;20200;-30
2023/10/04 07:23:13;;;;;;;13.13;3.50;;;14.40;63.50;;;;;;5047014;28;20200;-30
2023/10/04 07:25:49;;;;;;;13.83;3.43;;;14.40;63.50;;;;;;5046648;28;20307;-30
2023/10/04 07:28:19;;;;;;;8.93;2.97;;;14.50;64.20;;;;;;5044940;28;20200;-30
2023/10/04 07:30:47;;;;;;;10.20;2.80;;;14.50;63.60;;;;;;5044344;28;20257;-30
2023/10/04 07:33:16;;;;;;;12.03;3.30;;;14.50;63.60;;;;;;5044969;28;20220;-30
2023/10/04 07:35:45;;;;;;;11.67;3.23;;;14.60;63.70;;;;;;5043868;28;20208;-30
2023/10/04 07:38:14;;;;;;;13.73;3.07;;;14.60;63.60;;;;;;5046492;28;20764;-30
2023/10/04 07:40:41;;;;;;;13.13;3.00;;;14.60;63.90;;;;;;5028295;28;20228;-31
2023/10/04 07:43:09;;;;;;;16.07;3.40;;;14.70;64.10;;;;;;5045151;28;20470;-31
2023/10/04 07:45:36;;;;;;;14.60;3.30;;;14.70;63.90;;;;;;5044331;28;20220;-30
2023/10/04 07:48:12;;;;;;;11.53;3.50;;;14.70;63.90;;;;;;5044469;28;20208;-30
2023/10/04 07:50:42;;;;;;;17.97;3.67;;;14.70;64.00;;;;;;5045828;28;20234;-30
2023/10/04 07:53:09;;;;;;;14.10;3.40;;;14.80;64.00;;;;;;5044441;28;20204;-30
2023/10/04 07:55:37;;;;;;;16.67;3.30;;;14.80;64.20;;;;;;5045884;28;20679;-30
2023/10/04 07:58:05;;;;;;;14.20;3.33;;;14.90;64.10;;;;;;5043939;28;20224;-28
2023/10/04 08:00:36;;;;;;;17.17;3.38;;;14.90;64.20;;;;;;5045379;28;20243;-28
2023/10/04 08:03:06;;;;;;;13.30;3.10;;;15.00;64.20;;;;;;5045524;28;20296;-28
2023/10/04 08:05:35;;;;;;;13.38;3.35;;;15.00;64.20;;;;;;5045664;28;20212;-28
2023/10/04 08:08:04;;;;;;;15.70;3.40;;;15.00;64.20;;;;;;5045266;28;20204;-28
2023/10/04 08:10:39;;;;;;;18.47;3.87;;;15.10;64.50;;;;;;5043956;28;20228;-28
2023/10/04 08:13:10;;;;;;;20.92;3.90;;;15.10;64.30;;;;;;5045532;28;20193;-28
2023/10/04 08:15:38;;;;;;;16.40;3.70;;;15.20;64.40;;;;;;5045383;28;20208;-28
2023/10/04 08:18:06;;;;;;;16.43;3.70;;;15.20;64.40;;;;;;5044431;28;20622;-28
2023/10/04 08:20:36;;;;;;;19.38;3.33;;;15.30;64.50;;;;;;5044220;28;20204;-28
2023/10/04 08:23:04;;;;;;;14.90;3.55;;;15.30;64.40;;;;;;5045019;28;20200;-28
2023/10/04 08:25:35;;;;;;;14.30;3.28;;;15.40;64.50;;;;;;5043436;28;20283;-29
2023/10/04 08:28:06;;;;;;;11.07;3.22;;;15.40;64.60;;;;;;5043668;28;20212;-28
2023/10/04 08:30:35;;;;;;;12.07;3.50;;;15.50;64.70;;;;;;5044116;28;20204;-29
2023/10/04 08:33:03;;;;;;;15.43;3.17;;;15.60;64.80;;;;;;5045162;28;20488;-29
2023/10/04 08:35:36;;;;;;;10.35;3.50;;;15.60;64.70;;;;;;5044969;28;20270;-28
2023/10/04 08:38:05;;;;;;;15.00;3.10;;;15.70;64.70;;;;;;5043651;28;20293;-28
2023/10/04 08:40:39;;;;;;;11.60;3.42;;;15.70;64.60;;;;;;5027454;28;20196;-28
2023/10/04 08:43:08;;;;;;;16.52;4.03;;;15.80;64.80;;;;;;5043602;28;20657;-28
2023/10/04 08:45:36;;;;;;;13.18;3.30;;;15.80;64.80;;;;;;5027253;28;20204;-28
2023/10/04 08:48:07;;;;;;;14.73;3.30;;;15.90;64.90;;;;;;5043392;28;20200;-28
2023/10/04 08:50:53;;;;;;;14.65;3.80;;;16.00;65.00;;;;;;5043402;28;20231;-28
2023/10/04 08:53:45;;;;;;;14.52;3.33;;;16.00;65.10;;;;;;5045337;28;20633;-28
2023/10/04 08:56:19;;;;;;;13.00;3.22;;;16.10;64.90;;;;;;5045451;28;20212;-29
2023/10/04 08:58:49;;;;;;;15.80;3.95;;;16.10;64.90;;;;;;5043399;28;20601;-28
2023/10/04 09:01:20;;;;;;;21.23;4.40;;;16.20;65.30;;;;;;5044451;28;20339;-28
2023/10/04 09:03:50;;;;;;;21.33;3.90;;;16.20;65.10;;;;;;5043210;28;20196;-28
2023/10/04 09:06:17;;;;;;;22.47;4.83;;;16.30;65.10;;;;;;5043674;28;20746;-28
2023/10/04 09:08:49;;;;;;;14.15;3.53;;;16.40;65.20;;;;;;5044711;28;20208;-29
2023/10/04 09:11:16;;;;;;;16.52;3.92;;;16.40;65.20;;;;;;5044755;28;20227;-28
2023/10/04 09:13:44;;;;;;;14.35;3.80;;;16.50;65.30;;;;;;5045026;28;20287;-28
2023/10/04 09:16:26;;;;;;;10.65;3.42;;;16.50;65.40;;;;;;5044619;28;20225;-29
2023/10/04 09:19:18;;;;;;;10.82;3.00;;;16.60;65.40;;;;;;5044111;28;20325;-29
2023/10/04 09:21:46;;;;;;;17.63;4.27;;;16.70;65.30;;;;;;5044651;28;20732;-29
2023/10/04 09:24:16;;;;;;;10.27;3.78;;;16.70;65.10;;;;;;5044785;28;20215;-29
2023/10/04 09:26:53;;;;;;;13.30;4.32;;;16.80;65.10;;;;;;5044544;28;20283;-29
2023/10/04 09:29:49;;;;;;;14.60;4.50;;;16.80;65.20;;;;;;5042939;28;20319;-29
2023/10/04 09:32:16;;;;;;;14.18;4.22;;;16.90;65.40;;;;;;5043651;28;20706;-29
2023/10/04 09:35:05;;;;;;;12.97;3.93;;;16.90;64.90;;;;;;5042998;28;20211;-29
2023/10/04 09:37:32;;;;;;;18.42;3.95;;;17.00;65.30;;;;;;5042998;28;20270;-29
2023/10/04 09:40:11;;;;;;;11.35;4.00;;;17.10;65.30;;;;;;5044393;28;20631;-29
2023/10/04 09:42:51;;;;;;;16.35;4.00;;;17.10;65.10;;;;;;5042956;28;20287;-29
2023/10/04 09:45:20;;;;;;;15.85;4.30;;;17.20;65.20;;;;;;5042781;28;20200;-29
2023/10/04 09:47:53;;;;;;;18.03;4.53;;;17.20;65.00;;;;;;5042597;28;20321;-30
2023/10/04 09:50:23;;;;;;;12.77;4.22;;;17.20;65.10;;;;;;5042654;28;20223;-28
2023/10/04 09:52:54;;;;;;;15.48;4.45;;;17.30;65.30;;;;;;5044228;28;20714;-28
2023/10/04 09:55:25;;;;;;;16.55;5.15;;;17.40;65.10;;;;;;5042940;28;20200;-28
2023/10/04 09:57:57;;;;;;;15.45;4.45;;;17.40;65.10;;;;;;5042711;28;20859;-28
2023/10/04 10:00:25;;;;;;;13.45;4.50;;;17.50;65.10;;;;;;5045463;28;20290;-29
2023/10/04 10:02:54;;;;;;;16.25;4.40;;;17.50;64.90;;;;;;5029672;28;20196;-28
2023/10/04 10:05:34;;;;;;;13.05;3.80;;;17.50;65.00;;;;;;5048190;28;20216;-29
2023/10/04 10:08:08;;;;;;;12.20;4.07;;;17.60;65.10;;;;;;5046999;28;20226;-29
2023/10/04 10:10:42;;;;;;;14.77;4.50;;;17.70;64.80;;;;;;5047946;28;20196;-31
2023/10/04 10:13:12;;;;;;;15.68;4.20;;;17.70;64.90;;;;;;5047809;28;20203;-32
2023/10/04 10:15:39;;;;;;;15.45;4.32;;;17.70;65.00;;;;;;5045916;28;20216;-32
2023/10/04 10:18:09;;;;;;;21.40;4.43;;;17.80;64.70;;;;;;5046151;28;20230;-32
2023/10/04 10:20:39;;;;;;;13.13;3.58;;;17.80;64.80;;;;;;5047539;28;20208;-32
2023/10/04 10:23:06;;;;;;;13.73;3.85;;;17.80;64.70;;;;;;5045970;28;20235;-32
2023/10/04 10:25:33;;;;;;;12.95;4.50;;;17.90;64.70;;;;;;5045949;28;20694;-32
2023/10/04 10:28:04;;;;;;;15.48;4.20;;;17.90;64.60;;;;;;5045890;28;20204;-32
2023/10/04 10:30:34;;;;;;;14.20;4.20;;;18.00;64.70;;;;;;5047169;28;20222;-32
2023/10/04 10:33:05;;;;;;;16.88;4.60;;;18.00;64.60;;;;;;5047041;28;20721;-32
2023/10/04 10:35:51;;;;;;;10.93;4.13;;;18.00;64.40;;;;;;5045877;28;20204;-32
2023/10/04 10:38:29;;;;;;;15.35;4.07;;;18.00;64.50;;;;;;5047356;28;20287;-32
2023/10/04 10:40:58;;;;;;;14.68;4.28;;;18.10;64.50;;;;;;5046801;28;20219;-32
2023/10/04 10:43:26;;;;;;;21.20;4.25;;;18.10;64.40;;;;;;5045823;28;20262;-32
2023/10/04 10:45:56;;;;;;;15.65;3.95;;;18.10;64.20;;;;;;5047042;28;20702;-32
2023/10/04 10:48:31;;;;;;;17.65;4.47;;;18.20;64.20;;;;;;5029378;28;20212;-32
2023/10/04 10:51:00;;;;;;;14.20;4.47;;;18.20;64.30;;;;;;5045302;28;20199;-32
2023/10/04 10:53:27;;;;;;;20.00;5.15;;;18.20;64.40;;;;;;5045448;28;20219;-32
2023/10/04 10:55:54;;;;;;;28.73;6.38;;;18.30;64.60;;;;;;5045482;28;20299;-32
2023/10/04 10:58:25;;;;;;;14.60;4.20;;;18.30;64.50;;;;;;5046703;28;20314;-33
2023/10/04 11:00:56;;;;;;;14.40;4.47;;;18.30;64.50;;;;;;5046544;28;20236;-32
2023/10/04 11:03:24;;;;;;;12.02;3.53;;;18.40;64.50;;;;;;5047016;28;20736;-32
2023/10/04 11:05:55;;;;;;;12.43;4.03;;;18.40;64.50;;;;;;5045015;28;20200;-32
2023/10/04 11:08:22;;;;;;;12.45;3.72;;;18.50;64.60;;;;;;5046158;28;20192;-32
2023/10/04 11:10:49;;;;;;;12.60;3.33;;;18.50;64.60;;;;;;5028640;28;20291;-32
2023/10/04 11:13:18;;;;;;;17.45;4.15;;;18.60;64.60;;;;;;5045068;28;20258;-32
2023/10/04 11:15:46;;;;;;;16.17;4.45;;;18.60;64.50;;;;;;5028958;28;20208;-32
2023/10/04 11:18:14;;;;;;;12.20;3.78;;;18.70;64.50;;;;;;5046455;28;20591;-32
2023/10/04 11:20:42;;;;;;;16.10;4.25;;;18.70;64.40;;;;;;5045576;28;20232;-32
2023/10/04 11:23:12;;;;;;;24.17;5.20;;;18.70;64.40;;;;;;5044990;28;20266;-32
2023/10/04 11:25:40;;;;;;;17.05;4.32;;;18.80;64.30;;;;;;5046479;28;20208;-32
2023/10/04 11:28:11;;;;;;;12.00;3.85;;;18.80;64.30;;;;;;5028254;28;20271;-32
2023/10/04 11:30:40;;;;;;;11.88;3.75;;;18.90;64.40;;;;;;5046438;28;20242;-32
2023/10/04 11:33:12;;;;;;;16.55;3.95;;;18.90;64.40;;;;;;5046109;28;20323;-32
2023/10/04 11:35:47;;;;;;;11.15;3.70;;;18.90;64.40;;;;;;5046135;28;20203;-32
2023/10/04 11:38:16;;;;;;;10.32;3.42;;;19.00;64.40;;;;;;5045830;28;20228;-32
2023/10/04 11:40:49;;;;;;;13.48;3.60;;;19.00;64.40;;;;;;5044106;28;20266;-33
2023/10/04 11:43:27;;;;;;;14.73;3.92;;;19.00;64.30;;;;;;5045700;28;20294;-32
2023/10/04 11:46:04;;;;;;;9.98;3.80;;;19.10;64.40;;;;;;5045865;28;20541;-32
2023/10/04 11:48:31;;;;;;;11.93;3.88;;;19.10;64.40;;;;;;5046259;28;20257;-34
2023/10/04 11:51:03;;;;;;;11.70;3.65;;;19.20;64.50;;;;;;5044081;28;20220;-33
2023/10/04 11:53:38;;;;;;;14.23;3.45;;;19.20;64.40;;;;;;5046155;28;20212;-33
2023/10/04 11:56:09;;;;;;;9.52;3.10;;;19.30;65.30;;;;;;5044555;28;20307;-33
2023/10/04 11:58:42;;;;;;;8.73;3.13;;;19.30;64.50;;;;;;5044167;28;20232;-32
2023/10/04 12:01:11;;;;;;;10.18;2.45;;;19.40;64.40;;;;;;5043793;28;20232;-33
2023/10/04 12:03:38;;;;;;;8.65;2.42;;;19.40;64.20;;;;;;5045821;28;20279;-32
2023/10/04 12:06:07;;;;;;;12.05;2.47;;;19.40;64.10;;;;;;5027787;28;20699;-34
2023/10/04 12:08:39;;;;;;;8.57;2.97;;;19.50;64.20;;;;;;5045685;28;20553;-32
2023/10/04 12:11:21;;;;;;;7.50;2.50;;;19.50;64.10;;;;;;5045679;28;20315;-32
2023/10/04 12:13:49;;;;;;;11.20;2.53;;;19.50;64.20;;;;;;5045036;28;20313;-33
2023/10/04 12:16:17;;;;;;;8.48;2.60;;;19.60;64.20;;;;;;5045147;28;20282;-32
2023/10/04 12:18:45;;;;;;;6.75;2.53;;;19.60;64.10;;;;;;5045318;28;20220;-33
2023/10/04 12:21:13;;;;;;;14.50;3.13;;;19.70;64.10;;;;;;5045146;28;20472;-33
2023/10/04 12:23:40;;;;;;;10.40;2.42;;;19.70;64.20;;;;;;5043355;28;20573;-33
2023/10/04 12:26:09;;;;;;;9.85;2.78;;;19.70;64.00;;;;;;5045205;28;20295;-33
2023/10/04 12:28:37;;;;;;;14.32;2.80;;;19.80;64.00;;;;;;5045012;28;20223;-29
2023/10/04 12:31:07;;;;;;;11.93;2.83;;;19.80;63.90;;;;;;5045144;28;20208;-33
2023/10/04 12:33:36;;;;;;;9.75;3.10;;;19.80;63.80;;;;;;5045565;28;20280;-33
2023/10/04 12:36:06;;;;;;;7.78;2.38;;;19.90;63.90;;;;;;5043624;28;20305;-32
2023/10/04 12:38:34;;;;;;;10.82;2.85;;;19.90;63.90;;;;;;5045082;28;20323;-33
2023/10/04 12:41:01;;;;;;;9.25;2.72;;;19.90;63.80;;;;;;5044731;28;20433;-33
2023/10/04 12:43:31;;;;;;;12.02;3.10;;;19.90;63.80;;;;;;5027263;28;20239;-33
2023/10/04 12:46:01;;;;;;;15.50;3.63;;;20.00;63.80;;;;;;5043540;28;20196;-33
2023/10/04 12:48:31;;;;;;;14.23;3.38;;;20.00;63.70;;;;;;5043468;28;20220;-33
2023/10/04 12:50:58;;;;;;;11.20;3.22;;;20.00;63.70;;;;;;5043412;28;20225;-33
2023/10/04 12:53:25;;;;;;;11.23;2.95;;;20.00;63.70;;;;;;5044562;28;20552;-33
2023/10/04 12:55:55;;;;;;;12.73;3.35;;;20.10;63.60;;;;;;5045121;28;20563;-33
2023/10/04 12:58:24;;;;;;;14.60;3.38;;;20.10;63.60;;;;;;5026797;28;20215;-33